sensor_id;sensor_type;location;lat;lon;timestamp;noise_LAeq;noise_LA_min;noise_LA_max;noise_LA01;noise_LA95
58197;Laerm;43999;51.660;5.616;2023-08-24T00:01:11;49.62;48.28;51.29;;
58197;Laerm;43999;51.660;5.616;2023-08-24T00:03:47;49.62;48.37;51.03;;
58197;Laerm;43999;51.660;5.616;2023-08-24T00:06:17;49.62;48.26;51.38;;
58197;Laerm;43999;51.660;5.616;2023-08-24T00:08:51;49.63;48.39;51.37;;
58197;Laerm;43999;51.660;5.616;2023-08-24T00:11:19;49.61;48.28;51.38;;
58197;Laerm;43999;51.660;5.616;2023-08-24T00:13:48;49.62;48.46;51.29;;
58197;Laerm;43999;51.660;5.616;2023-08-24T00:16:20;49.60;48.23;51.37;;
58197;Laerm;43999;51.660;5.616;2023-08-24T00:18:49;49.61;48.34;51.33;;
58197;Laerm;43999;51.660;5.616;2023-08-24T00:21:17;49.61;48.26;51.22;;
58197;Laerm;43999;51.660;5.616;2023-08-24T00:23:49;49.61;47.90;51.60;;
58197;Laerm;43999;51.660;5.616;2023-08-24T00:26:20;49.61;48.21;51.56;;
58197;Laerm;43999;51.660;5.616;2023-08-24T00:28:48;49.61;48.32;51.32;;
58197;Laerm;43999;51.660;5.616;2023-08-24T00:31:17;49.63;48.31;51.47;;
58197;Laerm;43999;51.660;5.616;2023-08-24T00:33:45;49.60;48.31;51.20;;
58197;Laerm;43999;51.660;5.616;2023-08-24T00:36:13;49.60;48.37;51.40;;
58197;Laerm;43999;51.660;5.616;2023-08-24T00:38:40;49.61;48.45;51.44;;
58197;Laerm;43999;51.660;5.616;2023-08-24T00:41:12;49.62;48.45;51.13;;
58197;Laerm;43999;51.660;5.616;2023-08-24T00:43:40;49.60;48.16;51.22;;
58197;Laerm;43999;51.660;5.616;2023-08-24T00:46:08;49.60;48.31;51.31;;
58197;Laerm;43999;51.660;5.616;2023-08-24T00:48:37;49.60;47.90;51.18;;
58197;Laerm;43999;51.660;5.616;2023-08-24T00:51:05;49.61;48.37;51.18;;
58197;Laerm;43999;51.660;5.616;2023-08-24T00:53:33;49.60;48.28;51.07;;
58197;Laerm;43999;51.660;5.616;2023-08-24T00:56:02;49.61;48.40;51.40;;
58197;Laerm;43999;51.660;5.616;2023-08-24T00:58:33;49.61;48.26;51.34;;
58197;Laerm;43999;51.660;5.616;2023-08-24T01:01:03;49.58;48.40;51.50;;
58197;Laerm;43999;51.660;5.616;2023-08-24T01:03:31;49.60;48.07;51.33;;
58197;Laerm;43999;51.660;5.616;2023-08-24T01:06:00;49.60;48.34;51.31;;
58197;Laerm;43999;51.660;5.616;2023-08-24T01:08:28;49.59;47.93;51.33;;
58197;Laerm;43999;51.660;5.616;2023-08-24T01:11:31;49.60;48.40;51.75;;
58197;Laerm;43999;51.660;5.616;2023-08-24T01:14:50;49.61;48.45;51.00;;
58197;Laerm;43999;51.660;5.616;2023-08-24T01:17:26;49.60;48.31;51.17;;
58197;Laerm;43999;51.660;5.616;2023-08-24T01:19:59;49.60;48.37;51.64;;
58197;Laerm;43999;51.660;5.616;2023-08-24T01:23:02;49.60;48.28;51.22;;
58197;Laerm;43999;51.660;5.616;2023-08-24T01:25:53;49.60;48.12;51.16;;
58197;Laerm;43999;51.660;5.616;2023-08-24T01:28:25;49.60;48.26;51.74;;
58197;Laerm;43999;51.660;5.616;2023-08-24T01:30:53;49.59;48.34;51.19;;
58197;Laerm;43999;51.660;5.616;2023-08-24T01:33:24;49.59;48.26;51.67;;
58197;Laerm;43999;51.660;5.616;2023-08-24T01:35:53;49.58;48.39;51.25;;
58197;Laerm;43999;51.660;5.616;2023-08-24T01:38:22;49.61;48.42;51.13;;
58197;Laerm;43999;51.660;5.616;2023-08-24T01:41:22;49.59;48.36;51.33;;
58197;Laerm;43999;51.660;5.616;2023-08-24T01:43:57;49.59;48.36;51.26;;
58197;Laerm;43999;51.660;5.616;2023-08-24T01:46:28;49.60;48.36;51.35;;
58197;Laerm;43999;51.660;5.616;2023-08-24T01:48:59;49.61;48.31;51.17;;
58197;Laerm;43999;51.660;5.616;2023-08-24T01:51:28;49.59;48.23;51.10;;
58197;Laerm;43999;51.660;5.616;2023-08-24T01:53:57;49.61;48.36;51.57;;
58197;Laerm;43999;51.660;5.616;2023-08-24T01:56:26;49.62;48.08;51.33;;
58197;Laerm;43999;51.660;5.616;2023-08-24T01:58:54;49.60;48.00;51.22;;
58197;Laerm;43999;51.660;5.616;2023-08-24T02:01:21;49.61;48.48;51.44;;
58197;Laerm;43999;51.660;5.616;2023-08-24T02:03:50;49.60;48.40;51.56;;
58197;Laerm;43999;51.660;5.616;2023-08-24T02:06:18;49.61;48.40;51.44;;
58197;Laerm;43999;51.660;5.616;2023-08-24T02:08:45;49.59;48.26;51.13;;
58197;Laerm;43999;51.660;5.616;2023-08-24T02:11:13;49.61;48.34;51.35;;
58197;Laerm;43999;51.660;5.616;2023-08-24T02:13:42;49.60;48.39;51.27;;
58197;Laerm;43999;51.660;5.616;2023-08-24T02:16:09;49.63;48.12;51.37;;
58197;Laerm;43999;51.660;5.616;2023-08-24T02:18:38;49.61;48.23;51.14;;
58197;Laerm;43999;51.660;5.616;2023-08-24T02:21:10;49.61;48.36;51.30;;
58197;Laerm;43999;51.660;5.616;2023-08-24T02:23:40;49.61;48.28;51.25;;
58197;Laerm;43999;51.660;5.616;2023-08-24T02:26:08;49.61;48.46;51.25;;
58197;Laerm;43999;51.660;5.616;2023-08-24T02:28:38;49.60;48.18;51.13;;
58197;Laerm;43999;51.660;5.616;2023-08-24T02:31:06;49.60;48.31;51.26;;
58197;Laerm;43999;51.660;5.616;2023-08-24T02:33:35;49.61;48.29;51.46;;
58197;Laerm;43999;51.660;5.616;2023-08-24T02:36:03;49.60;48.21;51.22;;
58197;Laerm;43999;51.660;5.616;2023-08-24T02:38:31;49.60;48.34;51.17;;
58197;Laerm;43999;51.660;5.616;2023-08-24T02:41:07;49.59;48.32;51.08;;
58197;Laerm;43999;51.660;5.616;2023-08-24T02:43:35;49.61;48.42;51.13;;
58197;Laerm;43999;51.660;5.616;2023-08-24T02:46:09;49.61;48.36;51.08;;
58197;Laerm;43999;51.660;5.616;2023-08-24T02:48:38;49.62;48.34;51.80;;
58197;Laerm;43999;51.660;5.616;2023-08-24T02:51:10;49.60;48.21;51.17;;
58197;Laerm;43999;51.660;5.616;2023-08-24T02:53:38;49.60;48.29;51.37;;
58197;Laerm;43999;51.660;5.616;2023-08-24T02:56:06;49.61;48.28;51.30;;
58197;Laerm;43999;51.660;5.616;2023-08-24T02:58:34;49.61;48.36;51.28;;
58197;Laerm;43999;51.660;5.616;2023-08-24T03:01:06;49.61;48.39;51.30;;
58197;Laerm;43999;51.660;5.616;2023-08-24T03:03:37;49.61;48.32;51.15;;
58197;Laerm;43999;51.660;5.616;2023-08-24T03:06:07;49.61;48.15;51.30;;
58197;Laerm;43999;51.660;5.616;2023-08-24T03:08:36;49.59;48.07;51.18;;
58197;Laerm;43999;51.660;5.616;2023-08-24T03:11:06;49.61;48.40;51.17;;
58197;Laerm;43999;51.660;5.616;2023-08-24T03:13:37;49.57;48.42;50.96;;
58197;Laerm;43999;51.660;5.616;2023-08-24T03:16:08;49.58;48.36;51.19;;
58197;Laerm;43999;51.660;5.616;2023-08-24T03:18:37;49.60;48.20;51.59;;
58197;Laerm;43999;51.660;5.616;2023-08-24T03:21:05;49.58;48.45;51.10;;
58197;Laerm;43999;51.660;5.616;2023-08-24T03:23:34;49.59;48.37;51.24;;
58197;Laerm;43999;51.660;5.616;2023-08-24T03:26:03;49.60;48.32;51.22;;
58197;Laerm;43999;51.660;5.616;2023-08-24T03:28:33;49.61;48.26;51.26;;
58197;Laerm;43999;51.660;5.616;2023-08-24T03:31:03;49.61;48.08;51.13;;
58197;Laerm;43999;51.660;5.616;2023-08-24T03:33:34;49.60;48.15;51.14;;
58197;Laerm;43999;51.660;5.616;2023-08-24T03:36:02;49.61;48.26;51.18;;
58197;Laerm;43999;51.660;5.616;2023-08-24T03:38:30;49.60;48.34;51.47;;
58197;Laerm;43999;51.660;5.616;2023-08-24T03:41:03;49.60;48.20;51.26;;
58197;Laerm;43999;51.660;5.616;2023-08-24T03:43:35;49.61;48.29;51.25;;
58197;Laerm;43999;51.660;5.616;2023-08-24T03:46:05;49.61;48.34;51.24;;
58197;Laerm;43999;51.660;5.616;2023-08-24T03:48:33;49.58;48.25;51.47;;
58197;Laerm;43999;51.660;5.616;2023-08-24T03:51:01;49.59;48.34;51.26;;
58197;Laerm;43999;51.660;5.616;2023-08-24T03:53:29;49.60;48.37;51.44;;
58197;Laerm;43999;51.660;5.616;2023-08-24T03:55:57;49.59;48.28;51.10;;
58197;Laerm;43999;51.660;5.616;2023-08-24T03:58:25;49.60;48.37;51.21;;
58197;Laerm;43999;51.660;5.616;2023-08-24T04:00:53;49.61;48.32;51.03;;
58197;Laerm;43999;51.660;5.616;2023-08-24T04:03:22;49.60;48.28;51.25;;
58197;Laerm;43999;51.660;5.616;2023-08-24T04:05:50;49.61;48.28;51.21;;
58197;Laerm;43999;51.660;5.616;2023-08-24T04:08:18;49.59;48.45;51.45;;
58197;Laerm;43999;51.660;5.616;2023-08-24T04:10:46;49.60;48.45;51.17;;
58197;Laerm;43999;51.660;5.616;2023-08-24T04:13:16;49.60;48.29;51.22;;
58197;Laerm;43999;51.660;5.616;2023-08-24T04:15:44;49.60;47.86;51.40;;
58197;Laerm;43999;51.660;5.616;2023-08-24T04:18:13;49.59;48.16;51.10;;
58197;Laerm;43999;51.660;5.616;2023-08-24T04:20:42;49.59;48.28;51.58;;
58197;Laerm;43999;51.660;5.616;2023-08-24T04:23:13;49.60;48.36;51.08;;
58197;Laerm;43999;51.660;5.616;2023-08-24T04:25:41;49.58;48.36;51.17;;
58197;Laerm;43999;51.660;5.616;2023-08-24T04:28:11;49.58;48.36;51.33;;
58197;Laerm;43999;51.660;5.616;2023-08-24T04:30:38;49.61;48.45;51.15;;
58197;Laerm;43999;51.660;5.616;2023-08-24T04:33:07;49.61;48.36;51.37;;
58197;Laerm;43999;51.660;5.616;2023-08-24T04:35:35;49.60;48.07;51.71;;
58197;Laerm;43999;51.660;5.616;2023-08-24T04:38:04;49.58;48.23;51.04;;
58197;Laerm;43999;51.660;5.616;2023-08-24T04:43:13;49.59;48.31;51.22;;
58197;Laerm;43999;51.660;5.616;2023-08-24T04:45:40;49.60;48.25;51.12;;
58197;Laerm;43999;51.660;5.616;2023-08-24T04:48:08;49.60;48.20;51.24;;
58197;Laerm;43999;51.660;5.616;2023-08-24T04:50:35;49.61;48.12;51.33;;
58197;Laerm;43999;51.660;5.616;2023-08-24T04:53:04;49.60;48.39;51.38;;
58197;Laerm;43999;51.660;5.616;2023-08-24T04:55:31;49.61;48.21;51.27;;
58197;Laerm;43999;51.660;5.616;2023-08-24T04:57:59;49.61;48.36;51.30;;
58197;Laerm;43999;51.660;5.616;2023-08-24T05:00:27;49.60;48.36;51.27;;
58197;Laerm;43999;51.660;5.616;2023-08-24T05:02:55;49.61;48.28;51.41;;
58197;Laerm;43999;51.660;5.616;2023-08-24T05:05:23;49.60;48.32;51.17;;
58197;Laerm;43999;51.660;5.616;2023-08-24T05:07:50;49.59;48.20;51.52;;
58197;Laerm;43999;51.660;5.616;2023-08-24T05:10:21;49.59;48.39;51.11;;
58197;Laerm;43999;51.660;5.616;2023-08-24T05:12:49;49.58;48.26;51.34;;
58197;Laerm;43999;51.660;5.616;2023-08-24T05:15:18;49.58;48.26;51.25;;
58197;Laerm;43999;51.660;5.616;2023-08-24T05:17:52;49.60;48.34;51.60;;
58197;Laerm;43999;51.660;5.616;2023-08-24T05:20:28;49.59;48.15;51.21;;
58197;Laerm;43999;51.660;5.616;2023-08-24T05:22:56;49.59;48.23;51.80;;
58197;Laerm;43999;51.660;5.616;2023-08-24T05:25:24;49.59;48.05;51.56;;
58197;Laerm;43999;51.660;5.616;2023-08-24T05:27:51;49.59;48.25;51.31;;
58197;Laerm;43999;51.660;5.616;2023-08-24T05:30:19;49.59;48.25;51.33;;
58197;Laerm;43999;51.660;5.616;2023-08-24T05:32:47;49.59;48.21;51.15;;
58197;Laerm;43999;51.660;5.616;2023-08-24T05:35:14;49.59;48.23;51.72;;
58197;Laerm;43999;51.660;5.616;2023-08-24T05:37:42;49.60;48.13;51.51;;
58197;Laerm;43999;51.660;5.616;2023-08-24T05:40:12;49.60;48.28;51.24;;
58197;Laerm;43999;51.660;5.616;2023-08-24T05:42:40;49.61;48.26;51.22;;
58197;Laerm;43999;51.660;5.616;2023-08-24T05:45:08;49.60;48.20;51.70;;
58197;Laerm;43999;51.660;5.616;2023-08-24T05:47:36;49.59;48.49;51.48;;
58197;Laerm;43999;51.660;5.616;2023-08-24T05:50:04;49.61;48.37;51.50;;
58197;Laerm;43999;51.660;5.616;2023-08-24T05:52:32;49.62;48.08;51.12;;
58197;Laerm;43999;51.660;5.616;2023-08-24T05:55:00;49.62;48.40;51.31;;
58197;Laerm;43999;51.660;5.616;2023-08-24T05:57:27;49.61;48.45;51.24;;
58197;Laerm;43999;51.660;5.616;2023-08-24T05:59:55;49.62;48.34;51.33;;
58197;Laerm;43999;51.660;5.616;2023-08-24T06:02:23;49.63;48.42;51.56;;
58197;Laerm;43999;51.660;5.616;2023-08-24T06:04:51;49.62;48.36;51.33;;
58197;Laerm;43999;51.660;5.616;2023-08-24T06:07:20;49.61;48.31;51.25;;
58197;Laerm;43999;51.660;5.616;2023-08-24T06:09:51;49.64;48.25;52.02;;
58197;Laerm;43999;51.660;5.616;2023-08-24T06:12:18;49.64;48.37;51.13;;
58197;Laerm;43999;51.660;5.616;2023-08-24T06:14:46;49.62;48.15;51.29;;
58197;Laerm;43999;51.660;5.616;2023-08-24T06:17:13;49.65;48.42;51.70;;
58197;Laerm;43999;51.660;5.616;2023-08-24T06:19:41;49.65;48.34;51.36;;
58197;Laerm;43999;51.660;5.616;2023-08-24T06:22:10;49.64;48.31;51.22;;
58197;Laerm;43999;51.660;5.616;2023-08-24T06:24:39;49.65;48.15;51.67;;
58197;Laerm;43999;51.660;5.616;2023-08-24T06:27:07;49.66;48.18;51.09;;
58197;Laerm;43999;51.660;5.616;2023-08-24T06:29:34;49.66;48.34;51.22;;
58197;Laerm;43999;51.660;5.616;2023-08-24T06:32:04;49.64;48.49;51.12;;
58197;Laerm;43999;51.660;5.616;2023-08-24T06:34:33;49.65;48.31;51.25;;
58197;Laerm;43999;51.660;5.616;2023-08-24T06:37:02;49.65;48.28;51.17;;
58197;Laerm;43999;51.660;5.616;2023-08-24T06:39:31;49.67;48.18;51.33;;
58197;Laerm;43999;51.660;5.616;2023-08-24T06:41:58;49.67;48.40;51.37;;
58197;Laerm;43999;51.660;5.616;2023-08-24T06:44:26;49.67;48.23;51.13;;
58197;Laerm;43999;51.660;5.616;2023-08-24T06:46:53;49.67;48.23;51.55;;
58197;Laerm;43999;51.660;5.616;2023-08-24T06:49:21;49.68;48.43;51.99;;
58197;Laerm;43999;51.660;5.616;2023-08-24T06:51:48;49.68;48.40;51.34;;
58197;Laerm;43999;51.660;5.616;2023-08-24T06:56:43;49.67;48.39;51.31;;
58197;Laerm;43999;51.660;5.616;2023-08-24T06:59:10;49.68;48.46;51.35;;
58197;Laerm;43999;51.660;5.616;2023-08-24T07:01:40;49.68;48.42;51.77;;
58197;Laerm;43999;51.660;5.616;2023-08-24T07:04:09;49.69;48.43;51.25;;
58197;Laerm;43999;51.660;5.616;2023-08-24T07:06:36;49.70;48.46;51.40;;
58197;Laerm;43999;51.660;5.616;2023-08-24T07:09:04;49.69;48.37;51.20;;
58197;Laerm;43999;51.660;5.616;2023-08-24T07:11:34;49.73;48.26;51.33;;
58197;Laerm;43999;51.660;5.616;2023-08-24T07:14:01;49.70;48.07;51.18;;
58197;Laerm;43999;51.660;5.616;2023-08-24T07:16:29;49.70;48.55;51.12;;
58197;Laerm;43999;51.660;5.616;2023-08-24T07:18:56;49.72;48.54;51.40;;
58197;Laerm;43999;51.660;5.616;2023-08-24T07:21:24;49.70;48.46;51.40;;
58197;Laerm;43999;51.660;5.616;2023-08-24T07:23:52;49.72;48.37;51.33;;
58197;Laerm;43999;51.660;5.616;2023-08-24T07:26:20;49.72;48.42;51.79;;
58197;Laerm;43999;51.660;5.616;2023-08-24T07:28:47;49.72;48.43;51.23;;
58197;Laerm;43999;51.660;5.616;2023-08-24T07:31:14;49.71;48.51;51.70;;
58197;Laerm;43999;51.660;5.616;2023-08-24T07:33:42;49.72;48.49;51.97;;
58197;Laerm;43999;51.660;5.616;2023-08-24T07:36:13;49.72;48.43;51.24;;
58197;Laerm;43999;51.660;5.616;2023-08-24T07:38:40;49.73;48.55;51.20;;
58197;Laerm;43999;51.660;5.616;2023-08-24T07:41:07;49.73;48.44;51.78;;
58197;Laerm;43999;51.660;5.616;2023-08-24T07:43:36;49.73;48.55;51.69;;
58197;Laerm;43999;51.660;5.616;2023-08-24T07:46:04;49.73;48.55;51.22;;
58197;Laerm;43999;51.660;5.616;2023-08-24T07:48:36;49.72;48.51;51.23;;
58197;Laerm;43999;51.660;5.616;2023-08-24T07:51:03;49.73;48.39;51.57;;
58197;Laerm;43999;51.660;5.616;2023-08-24T07:53:31;49.73;48.56;51.59;;
58197;Laerm;43999;51.660;5.616;2023-08-24T07:56:01;49.75;48.32;51.28;;
58197;Laerm;43999;51.660;5.616;2023-08-24T07:58:29;49.75;48.48;51.43;;
58197;Laerm;43999;51.660;5.616;2023-08-24T08:00:59;49.74;48.51;51.50;;
58197;Laerm;43999;51.660;5.616;2023-08-24T08:03:27;49.75;48.49;51.30;;
58197;Laerm;43999;51.660;5.616;2023-08-24T08:05:55;49.74;48.42;51.64;;
58197;Laerm;43999;51.660;5.616;2023-08-24T08:08:23;49.75;48.42;51.24;;
58197;Laerm;43999;51.660;5.616;2023-08-24T08:11:00;49.74;48.51;51.24;;
58197;Laerm;43999;51.660;5.616;2023-08-24T08:13:29;49.76;48.52;51.42;;
58197;Laerm;43999;51.660;5.616;2023-08-24T08:16:04;49.75;48.36;51.30;;
58197;Laerm;43999;51.660;5.616;2023-08-24T08:18:34;49.76;48.52;51.43;;
58197;Laerm;43999;51.660;5.616;2023-08-24T08:21:15;49.76;48.57;51.33;;
58197;Laerm;43999;51.660;5.616;2023-08-24T08:23:49;49.78;48.52;51.31;;
58197;Laerm;43999;51.660;5.616;2023-08-24T08:26:16;49.77;48.54;51.26;;
58197;Laerm;43999;51.660;5.616;2023-08-24T08:28:44;49.77;48.05;51.24;;
58197;Laerm;43999;51.660;5.616;2023-08-24T08:31:12;49.76;48.51;51.48;;
58197;Laerm;43999;51.660;5.616;2023-08-24T08:33:40;49.76;48.60;51.21;;
58197;Laerm;43999;51.660;5.616;2023-08-24T08:36:08;49.77;48.31;51.19;;
58197;Laerm;43999;51.660;5.616;2023-08-24T08:38:38;49.77;48.48;51.21;;
58197;Laerm;43999;51.660;5.616;2023-08-24T08:41:05;49.78;48.55;51.47;;
58197;Laerm;43999;51.660;5.616;2023-08-24T08:43:33;49.77;48.52;51.56;;
58197;Laerm;43999;51.660;5.616;2023-08-24T08:46:00;49.78;48.45;51.44;;
58197;Laerm;43999;51.660;5.616;2023-08-24T08:48:32;49.79;48.51;51.28;;
58197;Laerm;43999;51.660;5.616;2023-08-24T08:50:59;49.78;48.36;51.17;;
58197;Laerm;43999;51.660;5.616;2023-08-24T08:53:29;49.78;48.39;51.35;;
58197;Laerm;43999;51.660;5.616;2023-08-24T08:55:57;49.80;48.69;51.20;;
58197;Laerm;43999;51.660;5.616;2023-08-24T08:58:33;49.79;48.57;51.44;;
58197;Laerm;43999;51.660;5.616;2023-08-24T09:01:04;49.81;48.58;51.44;;
58197;Laerm;43999;51.660;5.616;2023-08-24T09:03:34;49.80;48.57;51.37;;
58197;Laerm;43999;51.660;5.616;2023-08-24T09:06:04;49.81;48.51;51.51;;
58197;Laerm;43999;51.660;5.616;2023-08-24T09:08:32;49.81;48.54;51.40;;
58197;Laerm;43999;51.660;5.616;2023-08-24T09:10:59;49.80;48.58;51.86;;
58197;Laerm;43999;51.660;5.616;2023-08-24T09:13:27;49.81;48.39;51.56;;
58197;Laerm;43999;51.660;5.616;2023-08-24T09:16:05;49.81;48.37;51.49;;
58197;Laerm;43999;51.660;5.616;2023-08-24T09:18:39;49.82;48.51;51.49;;
58197;Laerm;43999;51.660;5.616;2023-08-24T09:21:15;49.81;48.58;51.52;;
58197;Laerm;43999;51.660;5.616;2023-08-24T09:23:55;49.82;48.40;52.09;;
58197;Laerm;43999;51.660;5.616;2023-08-24T09:26:35;49.83;48.60;51.52;;
58197;Laerm;43999;51.660;5.616;2023-08-24T09:29:16;49.80;48.43;51.82;;
58197;Laerm;43999;51.660;5.616;2023-08-24T09:31:44;49.80;48.64;51.29;;
58197;Laerm;43999;51.660;5.616;2023-08-24T09:34:12;49.81;48.46;51.59;;
58197;Laerm;43999;51.660;5.616;2023-08-24T09:36:40;49.81;48.58;51.37;;
58197;Laerm;43999;51.660;5.616;2023-08-24T09:39:07;49.82;48.21;51.40;;
58197;Laerm;43999;51.660;5.616;2023-08-24T09:41:48;49.81;48.43;51.40;;
58197;Laerm;43999;51.660;5.616;2023-08-24T09:44:18;49.80;48.43;51.41;;
58197;Laerm;43999;51.660;5.616;2023-08-24T09:46:46;49.82;48.54;51.74;;
58197;Laerm;43999;51.660;5.616;2023-08-24T09:49:13;49.84;48.55;51.70;;
58197;Laerm;43999;51.660;5.616;2023-08-24T09:51:41;49.81;48.41;51.77;;
58197;Laerm;43999;51.660;5.616;2023-08-24T09:54:11;49.82;48.55;51.38;;
58197;Laerm;43999;51.660;5.616;2023-08-24T09:56:41;49.82;48.60;51.19;;
58197;Laerm;43999;51.660;5.616;2023-08-24T09:59:16;49.82;48.64;51.63;;
58197;Laerm;43999;51.660;5.616;2023-08-24T10:01:51;49.81;48.55;51.35;;
58197;Laerm;43999;51.660;5.616;2023-08-24T10:04:33;49.82;48.48;51.35;;
58197;Laerm;43999;51.660;5.616;2023-08-24T10:07:13;49.82;48.55;51.50;;
58197;Laerm;43999;51.660;5.616;2023-08-24T10:10:03;49.82;48.57;51.37;;
58197;Laerm;43999;51.660;5.616;2023-08-24T10:12:52;49.83;48.58;51.37;;
58197;Laerm;43999;51.660;5.616;2023-08-24T10:15:22;49.83;48.45;51.33;;
58197;Laerm;43999;51.660;5.616;2023-08-24T10:17:50;49.82;48.57;51.54;;
58197;Laerm;43999;51.660;5.616;2023-08-24T10:20:19;49.83;48.28;51.33;;
58197;Laerm;43999;51.660;5.616;2023-08-24T10:22:48;49.82;48.55;51.44;;
58197;Laerm;43999;51.660;5.616;2023-08-24T10:25:18;49.83;48.39;51.26;;
58197;Laerm;43999;51.660;5.616;2023-08-24T10:27:47;49.83;48.58;51.81;;
58197;Laerm;43999;51.660;5.616;2023-08-24T10:30:20;49.84;48.45;51.42;;
58197;Laerm;43999;51.660;5.616;2023-08-24T10:32:47;49.83;48.57;51.57;;
58197;Laerm;43999;51.660;5.616;2023-08-24T10:35:17;49.82;48.48;51.32;;
58197;Laerm;43999;51.660;5.616;2023-08-24T10:37:45;49.82;48.25;51.14;;
58197;Laerm;43999;51.660;5.616;2023-08-24T10:40:36;49.81;48.55;51.52;;
58197;Laerm;43999;51.660;5.616;2023-08-24T10:43:05;49.83;48.63;51.37;;
58197;Laerm;43999;51.660;5.616;2023-08-24T10:45:59;49.82;48.57;51.55;;
58197;Laerm;43999;51.660;5.616;2023-08-24T10:48:31;49.83;48.48;51.41;;
58197;Laerm;43999;51.660;5.616;2023-08-24T10:51:22;49.82;48.42;51.33;;
58197;Laerm;43999;51.660;5.616;2023-08-24T10:53:59;49.83;48.67;51.46;;
58197;Laerm;43999;51.660;5.616;2023-08-24T10:56:40;49.81;48.37;51.50;;
58197;Laerm;43999;51.660;5.616;2023-08-24T10:59:20;49.82;48.43;51.43;;
58197;Laerm;43999;51.660;5.616;2023-08-24T11:04:21;49.82;48.26;51.65;;
58197;Laerm;43999;51.660;5.616;2023-08-24T11:06:57;49.84;48.56;51.37;;
58197;Laerm;43999;51.660;5.616;2023-08-24T11:09:47;49.82;48.64;51.46;;
58197;Laerm;43999;51.660;5.616;2023-08-24T11:12:15;49.81;48.64;51.51;;
58197;Laerm;43999;51.660;5.616;2023-08-24T11:14:51;49.81;48.58;51.45;;
58197;Laerm;43999;51.660;5.616;2023-08-24T11:17:22;49.81;48.60;51.33;;
58197;Laerm;43999;51.660;5.616;2023-08-24T11:19:53;49.83;48.48;51.34;;
58197;Laerm;43999;51.660;5.616;2023-08-24T11:22:22;49.83;48.67;51.21;;
58197;Laerm;43999;51.660;5.616;2023-08-24T11:24:49;49.83;48.54;51.54;;
58197;Laerm;43999;51.660;5.616;2023-08-24T11:27:17;49.83;48.55;51.43;;
58197;Laerm;43999;51.660;5.616;2023-08-24T11:29:59;49.83;48.25;51.37;;
58197;Laerm;43999;51.660;5.616;2023-08-24T11:32:27;49.83;48.49;51.54;;
58197;Laerm;43999;51.660;5.616;2023-08-24T11:34:55;49.84;48.66;51.26;;
58197;Laerm;43999;51.660;5.616;2023-08-24T11:37:22;49.84;48.40;51.47;;
58197;Laerm;43999;51.660;5.616;2023-08-24T11:39:50;49.84;48.55;51.64;;
58197;Laerm;43999;51.660;5.616;2023-08-24T11:42:17;49.84;48.40;51.29;;
58197;Laerm;43999;51.660;5.616;2023-08-24T11:44:49;49.84;48.63;51.39;;
58197;Laerm;43999;51.660;5.616;2023-08-24T11:47:20;49.84;48.37;51.38;;
58197;Laerm;43999;51.660;5.616;2023-08-24T11:49:48;49.83;48.66;51.53;;
58197;Laerm;43999;51.660;5.616;2023-08-24T11:52:17;49.83;48.37;51.37;;
58197;Laerm;43999;51.660;5.616;2023-08-24T11:54:44;49.84;48.54;51.59;;
58197;Laerm;43999;51.660;5.616;2023-08-24T11:57:13;49.83;48.60;51.40;;
58197;Laerm;43999;51.660;5.616;2023-08-24T11:59:40;49.83;48.49;51.35;;
58197;Laerm;43999;51.660;5.616;2023-08-24T12:02:09;49.85;48.66;51.40;;
58197;Laerm;43999;51.660;5.616;2023-08-24T12:04:42;49.82;48.74;51.36;;
58197;Laerm;43999;51.660;5.616;2023-08-24T12:07:15;49.84;48.61;51.46;;
58197;Laerm;43999;51.660;5.616;2023-08-24T12:09:42;49.83;48.61;51.42;;
58197;Laerm;43999;51.660;5.616;2023-08-24T12:12:15;49.84;48.48;51.44;;
58197;Laerm;43999;51.660;5.616;2023-08-24T12:14:45;49.83;48.57;51.75;;
58197;Laerm;43999;51.660;5.616;2023-08-24T12:17:16;49.83;48.45;51.27;;
58197;Laerm;43999;51.660;5.616;2023-08-24T12:20:00;49.86;48.45;51.50;;
58197;Laerm;43999;51.660;5.616;2023-08-24T12:22:33;49.84;48.51;51.84;;
58197;Laerm;43999;51.660;5.616;2023-08-24T12:25:00;49.84;48.54;51.52;;
58197;Laerm;43999;51.660;5.616;2023-08-24T12:27:29;49.85;48.63;51.26;;
58197;Laerm;43999;51.660;5.616;2023-08-24T12:30:01;49.86;48.52;51.40;;
58197;Laerm;43999;51.660;5.616;2023-08-24T12:32:45;49.83;48.60;51.35;;
58197;Laerm;43999;51.660;5.616;2023-08-24T12:35:14;49.84;48.63;51.32;;
58197;Laerm;43999;51.660;5.616;2023-08-24T12:37:42;49.86;48.43;51.50;;
58197;Laerm;43999;51.660;5.616;2023-08-24T12:40:10;49.84;48.60;51.38;;
58197;Laerm;43999;51.660;5.616;2023-08-24T12:42:38;49.85;48.55;51.33;;
58197;Laerm;43999;51.660;5.616;2023-08-24T12:45:06;49.85;48.75;51.63;;
58197;Laerm;43999;51.660;5.616;2023-08-24T12:47:34;49.83;48.73;51.26;;
58197;Laerm;43999;51.660;5.616;2023-08-24T12:50:06;49.85;48.61;51.73;;
58197;Laerm;43999;51.660;5.616;2023-08-24T12:52:34;49.85;48.66;51.60;;
58197;Laerm;43999;51.660;5.616;2023-08-24T12:55:01;49.84;48.57;51.23;;
58197;Laerm;43999;51.660;5.616;2023-08-24T12:57:30;49.83;48.55;51.30;;
58197;Laerm;43999;51.660;5.616;2023-08-24T12:59:58;49.83;48.63;51.19;;
58197;Laerm;43999;51.660;5.616;2023-08-24T13:02:25;49.82;48.48;51.60;;
58197;Laerm;43999;51.660;5.616;2023-08-24T13:05:05;49.83;48.36;51.28;;
58197;Laerm;43999;51.660;5.616;2023-08-24T13:07:33;49.84;48.52;51.48;;
58197;Laerm;43999;51.660;5.616;2023-08-24T13:10:03;49.83;48.64;51.31;;
58197;Laerm;43999;51.660;5.616;2023-08-24T13:12:32;49.84;48.37;51.35;;
58197;Laerm;43999;51.660;5.616;2023-08-24T13:14:59;49.84;48.69;51.50;;
58197;Laerm;43999;51.660;5.616;2023-08-24T13:17:27;49.83;48.54;51.53;;
58197;Laerm;43999;51.660;5.616;2023-08-24T13:19:54;49.83;48.63;51.43;;
58197;Laerm;43999;51.660;5.616;2023-08-24T13:22:22;49.84;48.57;51.40;;
58197;Laerm;43999;51.660;5.616;2023-08-24T13:24:50;49.84;48.61;51.36;;
58197;Laerm;43999;51.660;5.616;2023-08-24T13:27:17;49.82;48.48;51.40;;
58197;Laerm;43999;51.660;5.616;2023-08-24T13:29:45;49.83;48.63;51.42;;
58197;Laerm;43999;51.660;5.616;2023-08-24T13:32:12;49.83;48.49;51.34;;
58197;Laerm;43999;51.660;5.616;2023-08-24T13:34:40;49.82;48.61;51.42;;
58197;Laerm;43999;51.660;5.616;2023-08-24T13:37:07;49.82;48.49;51.74;;
58197;Laerm;43999;51.660;5.616;2023-08-24T13:39:36;49.83;48.46;51.33;;
58197;Laerm;43999;51.660;5.616;2023-08-24T13:42:03;49.82;48.43;51.32;;
58197;Laerm;43999;51.660;5.616;2023-08-24T13:44:30;49.83;48.48;51.28;;
58197;Laerm;43999;51.660;5.616;2023-08-24T13:46:58;49.81;48.66;51.32;;
58197;Laerm;43999;51.660;5.616;2023-08-24T13:49:26;49.82;48.64;51.68;;
58197;Laerm;43999;51.660;5.616;2023-08-24T13:52:07;49.81;48.40;51.39;;
58197;Laerm;43999;51.660;5.616;2023-08-24T13:54:35;49.79;48.32;51.36;;
58197;Laerm;43999;51.660;5.616;2023-08-24T13:57:06;49.82;48.64;51.30;;
58197;Laerm;43999;51.660;5.616;2023-08-24T13:59:35;49.80;48.26;51.49;;
58197;Laerm;43999;51.660;5.616;2023-08-24T14:02:05;49.81;48.63;51.45;;
58197;Laerm;43999;51.660;5.616;2023-08-24T14:04:33;49.80;48.56;51.55;;
58197;Laerm;43999;51.660;5.616;2023-08-24T14:07:00;49.80;48.46;51.33;;
58197;Laerm;43999;51.660;5.616;2023-08-24T14:09:28;49.79;48.43;51.37;;